sensor_id;sensor_type;location;lat;lon;timestamp;temperature;humidity
11838;DHT22;5978;51.020;6.764;2022-07-12T00:01:42;16.40;99.90
11838;DHT22;5978;51.020;6.764;2022-07-12T00:04:07;16.60;99.90
11838;DHT22;5978;51.020;6.764;2022-07-12T00:06:33;16.50;99.90
11838;DHT22;5978;51.020;6.764;2022-07-12T00:08:59;16.50;99.90
11838;DHT22;5978;51.020;6.764;2022-07-12T00:11:24;16.50;99.90
11838;DHT22;5978;51.020;6.764;2022-07-12T00:13:50;16.30;99.90
11838;DHT22;5978;51.020;6.764;2022-07-12T00:16:15;16.30;99.90
11838;DHT22;5978;51.020;6.764;2022-07-12T00:18:41;16.40;99.90
11838;DHT22;5978;51.020;6.764;2022-07-12T00:21:07;16.30;99.90
11838;DHT22;5978;51.020;6.764;2022-07-12T00:23:34;16.30;99.90
11838;DHT22;5978;51.020;6.764;2022-07-12T00:26:00;16.30;99.90
11838;DHT22;5978;51.020;6.764;2022-07-12T00:28:30;16.30;99.90
11838;DHT22;5978;51.020;6.764;2022-07-12T00:30:56;16.30;99.90
11838;DHT22;5978;51.020;6.764;2022-07-12T00:33:21;16.30;99.90
11838;DHT22;5978;51.020;6.764;2022-07-12T00:35:47;16.20;99.90
11838;DHT22;5978;51.020;6.764;2022-07-12T00:38:12;16.20;99.90
11838;DHT22;5978;51.020;6.764;2022-07-12T00:40:38;16.20;99.90
11838;DHT22;5978;51.020;6.764;2022-07-12T00:43:04;16.20;99.90
11838;DHT22;5978;51.020;6.764;2022-07-12T00:45:29;16.30;99.90
11838;DHT22;5978;51.020;6.764;2022-07-12T00:47:55;16.20;99.90
11838;DHT22;5978;51.020;6.764;2022-07-12T00:50:21;16.00;99.90
11838;DHT22;5978;51.020;6.764;2022-07-12T00:52:50;16.20;99.90
11838;DHT22;5978;51.020;6.764;2022-07-12T00:55:17;16.10;99.90
11838;DHT22;5978;51.020;6.764;2022-07-12T00:57:44;16.00;99.90
11838;DHT22;5978;51.020;6.764;2022-07-12T01:00:11;15.90;99.90
11838;DHT22;5978;51.020;6.764;2022-07-12T01:02:38;15.90;99.90
11838;DHT22;5978;51.020;6.764;2022-07-12T01:05:06;15.80;99.90
11838;DHT22;5978;51.020;6.764;2022-07-12T01:07:33;15.80;99.90
11838;DHT22;5978;51.020;6.764;2022-07-12T01:10:00;16.00;99.90
11838;DHT22;5978;51.020;6.764;2022-07-12T01:12:26;16.10;99.90
11838;DHT22;5978;51.020;6.764;2022-07-12T01:14:52;15.70;99.90
11838;DHT22;5978;51.020;6.764;2022-07-12T01:17:21;15.70;99.90
11838;DHT22;5978;51.020;6.764;2022-07-12T01:19:48;15.70;99.90
11838;DHT22;5978;51.020;6.764;2022-07-12T01:22:15;15.60;99.90
11838;DHT22;5978;51.020;6.764;2022-07-12T01:24:42;15.60;99.90
11838;DHT22;5978;51.020;6.764;2022-07-12T01:27:08;15.60;99.90
11838;DHT22;5978;51.020;6.764;2022-07-12T01:29:34;15.50;99.90
11838;DHT22;5978;51.020;6.764;2022-07-12T01:32:01;15.60;99.90
11838;DHT22;5978;51.020;6.764;2022-07-12T01:34:49;15.50;99.90
11838;DHT22;5978;51.020;6.764;2022-07-12T01:37:16;15.50;99.90
11838;DHT22;5978;51.020;6.764;2022-07-12T01:39:43;15.50;99.90
11838;DHT22;5978;51.020;6.764;2022-07-12T01:42:08;15.40;99.90
11838;DHT22;5978;51.020;6.764;2022-07-12T01:44:34;15.40;99.90
11838;DHT22;5978;51.020;6.764;2022-07-12T01:47:00;15.20;99.90
11838;DHT22;5978;51.020;6.764;2022-07-12T01:49:26;15.20;99.90
11838;DHT22;5978;51.020;6.764;2022-07-12T01:51:52;15.20;99.90
11838;DHT22;5978;51.020;6.764;2022-07-12T01:54:19;15.20;99.90
11838;DHT22;5978;51.020;6.764;2022-07-12T01:56:45;15.20;99.90
11838;DHT22;5978;51.020;6.764;2022-07-12T01:59:11;15.30;99.90
11838;DHT22;5978;51.020;6.764;2022-07-12T02:01:37;15.40;99.90
11838;DHT22;5978;51.020;6.764;2022-07-12T02:04:04;15.40;99.90
11838;DHT22;5978;51.020;6.764;2022-07-12T02:06:30;15.30;99.90
11838;DHT22;5978;51.020;6.764;2022-07-12T02:08:56;15.40;99.90
11838;DHT22;5978;51.020;6.764;2022-07-12T02:11:21;15.30;99.90
11838;DHT22;5978;51.020;6.764;2022-07-12T02:13:47;15.30;99.90
11838;DHT22;5978;51.020;6.764;2022-07-12T02:16:12;15.20;99.90
11838;DHT22;5978;51.020;6.764;2022-07-12T02:18:38;15.20;99.90
11838;DHT22;5978;51.020;6.764;2022-07-12T02:21:04;15.10;99.90
11838;DHT22;5978;51.020;6.764;2022-07-12T02:23:29;15.10;99.90
11838;DHT22;5978;51.020;6.764;2022-07-12T02:25:55;15.10;99.90
11838;DHT22;5978;51.020;6.764;2022-07-12T02:28:21;15.10;99.90
11838;DHT22;5978;51.020;6.764;2022-07-12T02:30:46;15.10;99.90
11838;DHT22;5978;51.020;6.764;2022-07-12T02:33:12;15.00;99.90
11838;DHT22;5978;51.020;6.764;2022-07-12T02:35:41;15.00;99.90
11838;DHT22;5978;51.020;6.764;2022-07-12T02:38:07;14.90;99.90
11838;DHT22;5978;51.020;6.764;2022-07-12T02:40:33;14.90;99.90
11838;DHT22;5978;51.020;6.764;2022-07-12T02:43:17;14.80;99.90
11838;DHT22;5978;51.020;6.764;2022-07-12T02:45:43;14.80;99.90
11838;DHT22;5978;51.020;6.764;2022-07-12T02:48:08;15.40;99.90
11838;DHT22;5978;51.020;6.764;2022-07-12T02:50:36;15.00;99.90
11838;DHT22;5978;51.020;6.764;2022-07-12T02:53:03;14.90;99.90
11838;DHT22;5978;51.020;6.764;2022-07-12T02:55:29;15.00;99.90
11838;DHT22;5978;51.020;6.764;2022-07-12T02:57:54;14.90;99.90
11838;DHT22;5978;51.020;6.764;2022-07-12T03:00:20;14.80;99.90
11838;DHT22;5978;51.020;6.764;2022-07-12T03:02:46;14.80;99.90
11838;DHT22;5978;51.020;6.764;2022-07-12T03:05:11;14.80;99.90
11838;DHT22;5978;51.020;6.764;2022-07-12T03:07:37;14.70;99.90
11838;DHT22;5978;51.020;6.764;2022-07-12T03:10:04;14.80;99.90
11838;DHT22;5978;51.020;6.764;2022-07-12T03:12:30;14.70;99.90
11838;DHT22;5978;51.020;6.764;2022-07-12T03:14:56;14.70;99.90
11838;DHT22;5978;51.020;6.764;2022-07-12T03:17:22;14.70;99.90
11838;DHT22;5978;51.020;6.764;2022-07-12T03:19:47;14.50;99.90
11838;DHT22;5978;51.020;6.764;2022-07-12T03:22:13;15.00;99.90
11838;DHT22;5978;51.020;6.764;2022-07-12T03:24:39;14.60;99.90
11838;DHT22;5978;51.020;6.764;2022-07-12T03:27:05;14.70;99.90
11838;DHT22;5978;51.020;6.764;2022-07-12T03:29:31;14.50;99.90
11838;DHT22;5978;51.020;6.764;2022-07-12T03:31:56;14.40;99.90
11838;DHT22;5978;51.020;6.764;2022-07-12T03:34:22;14.40;99.90
11838;DHT22;5978;51.020;6.764;2022-07-12T03:36:47;15.80;99.90
11838;DHT22;5978;51.020;6.764;2022-07-12T03:39:13;14.40;99.90
11838;DHT22;5978;51.020;6.764;2022-07-12T03:41:39;14.40;99.90
11838;DHT22;5978;51.020;6.764;2022-07-12T03:44:04;14.40;99.90
11838;DHT22;5978;51.020;6.764;2022-07-12T03:46:31;14.40;99.90
11838;DHT22;5978;51.020;6.764;2022-07-12T03:48:58;14.50;99.90
11838;DHT22;5978;51.020;6.764;2022-07-12T03:51:25;14.40;99.90
11838;DHT22;5978;51.020;6.764;2022-07-12T03:53:50;14.40;99.90
11838;DHT22;5978;51.020;6.764;2022-07-12T03:56:16;14.40;99.90
11838;DHT22;5978;51.020;6.764;2022-07-12T03:59:00;14.40;99.90
11838;DHT22;5978;51.020;6.764;2022-07-12T04:01:26;15.80;99.90
11838;DHT22;5978;51.020;6.764;2022-07-12T04:03:51;14.60;99.90
11838;DHT22;5978;51.020;6.764;2022-07-12T04:06:17;14.60;99.90
11838;DHT22;5978;51.020;6.764;2022-07-12T04:08:42;14.60;99.90
11838;DHT22;5978;51.020;6.764;2022-07-12T04:11:08;14.60;99.90
11838;DHT22;5978;51.020;6.764;2022-07-12T04:13:33;14.70;99.90
11838;DHT22;5978;51.020;6.764;2022-07-12T04:15:59;14.70;99.90
11838;DHT22;5978;51.020;6.764;2022-07-12T04:18:25;14.80;99.90
11838;DHT22;5978;51.020;6.764;2022-07-12T04:20:51;14.80;99.90
11838;DHT22;5978;51.020;6.764;2022-07-12T04:23:16;14.80;99.90
11838;DHT22;5978;51.020;6.764;2022-07-12T04:25:42;15.00;99.90
11838;DHT22;5978;51.020;6.764;2022-07-12T04:28:07;14.90;99.90
11838;DHT22;5978;51.020;6.764;2022-07-12T04:30:33;14.70;99.90
11838;DHT22;5978;51.020;6.764;2022-07-12T04:32:58;14.80;99.90
11838;DHT22;5978;51.020;6.764;2022-07-12T04:35:24;14.80;99.90
11838;DHT22;5978;51.020;6.764;2022-07-12T04:37:50;14.80;99.90
11838;DHT22;5978;51.020;6.764;2022-07-12T04:40:15;14.90;99.90
11838;DHT22;5978;51.020;6.764;2022-07-12T04:42:41;14.90;99.90
11838;DHT22;5978;51.020;6.764;2022-07-12T04:45:07;15.10;99.90
11838;DHT22;5978;51.020;6.764;2022-07-12T04:47:35;15.00;99.90
11838;DHT22;5978;51.020;6.764;2022-07-12T04:50:06;15.00;99.90
11838;DHT22;5978;51.020;6.764;2022-07-12T04:52:33;15.00;99.90
11838;DHT22;5978;51.020;6.764;2022-07-12T04:54:58;15.10;99.90
11838;DHT22;5978;51.020;6.764;2022-07-12T04:57:24;15.20;99.90
11838;DHT22;5978;51.020;6.764;2022-07-12T04:59:50;15.30;99.90
11838;DHT22;5978;51.020;6.764;2022-07-12T05:02:15;15.40;99.90
11838;DHT22;5978;51.020;6.764;2022-07-12T05:04:41;15.30;99.90
11838;DHT22;5978;51.020;6.764;2022-07-12T05:07:06;15.30;99.90
11838;DHT22;5978;51.020;6.764;2022-07-12T05:09:32;15.20;99.90
11838;DHT22;5978;51.020;6.764;2022-07-12T05:11:58;15.30;99.90
11838;DHT22;5978;51.020;6.764;2022-07-12T05:14:24;15.20;99.90
11838;DHT22;5978;51.020;6.764;2022-07-12T05:16:50;15.30;99.90
11838;DHT22;5978;51.020;6.764;2022-07-12T05:19:16;15.30;99.90
11838;DHT22;5978;51.020;6.764;2022-07-12T05:21:42;15.30;99.90
11838;DHT22;5978;51.020;6.764;2022-07-12T05:24:08;15.40;99.90
11838;DHT22;5978;51.020;6.764;2022-07-12T05:26:34;15.50;99.90
11838;DHT22;5978;51.020;6.764;2022-07-12T05:28:59;15.70;99.90
11838;DHT22;5978;51.020;6.764;2022-07-12T05:31:25;15.70;99.90
11838;DHT22;5978;51.020;6.764;2022-07-12T05:33:52;15.80;99.90
11838;DHT22;5978;51.020;6.764;2022-07-12T05:36:18;15.80;99.90
11838;DHT22;5978;51.020;6.764;2022-07-12T05:38:43;15.90;99.90
11838;DHT22;5978;51.020;6.764;2022-07-12T05:41:09;15.90;99.90
11838;DHT22;5978;51.020;6.764;2022-07-12T05:43:35;15.90;99.90
11838;DHT22;5978;51.020;6.764;2022-07-12T05:46:00;15.90;99.90
11838;DHT22;5978;51.020;6.764;2022-07-12T05:48:26;16.00;99.90
11838;DHT22;5978;51.020;6.764;2022-07-12T05:50:52;16.00;99.90
11838;DHT22;5978;51.020;6.764;2022-07-12T05:53:18;16.40;99.90
11838;DHT22;5978;51.020;6.764;2022-07-12T05:55:51;16.50;99.90
11838;DHT22;5978;51.020;6.764;2022-07-12T05:58:17;16.60;99.90
11838;DHT22;5978;51.020;6.764;2022-07-12T06:00:43;16.70;99.90
11838;DHT22;5978;51.020;6.764;2022-07-12T06:03:09;16.80;99.90
11838;DHT22;5978;51.020;6.764;2022-07-12T06:05:35;16.90;99.90
11838;DHT22;5978;51.020;6.764;2022-07-12T06:08:01;16.90;99.90
11838;DHT22;5978;51.020;6.764;2022-07-12T06:10:27;17.00;99.90
11838;DHT22;5978;51.020;6.764;2022-07-12T06:12:53;17.20;99.90
11838;DHT22;5978;51.020;6.764;2022-07-12T06:15:18;17.30;99.90
11838;DHT22;5978;51.020;6.764;2022-07-12T06:17:44;17.50;99.90
11838;DHT22;5978;51.020;6.764;2022-07-12T06:20:10;17.50;99.90
11838;DHT22;5978;51.020;6.764;2022-07-12T06:22:36;17.70;99.90
11838;DHT22;5978;51.020;6.764;2022-07-12T06:25:02;17.90;99.90
11838;DHT22;5978;51.020;6.764;2022-07-12T06:27:27;18.00;99.90
11838;DHT22;5978;51.020;6.764;2022-07-12T06:29:53;18.20;99.90
11838;DHT22;5978;51.020;6.764;2022-07-12T06:32:19;18.30;99.90
11838;DHT22;5978;51.020;6.764;2022-07-12T06:34:44;18.50;99.90
11838;DHT22;5978;51.020;6.764;2022-07-12T06:37:10;18.70;99.90
11838;DHT22;5978;51.020;6.764;2022-07-12T06:39:38;18.80;99.90
11838;DHT22;5978;51.020;6.764;2022-07-12T06:42:04;18.90;99.90
11838;DHT22;5978;51.020;6.764;2022-07-12T06:44:30;19.10;99.90
11838;DHT22;5978;51.020;6.764;2022-07-12T06:46:56;19.30;99.90
11838;DHT22;5978;51.020;6.764;2022-07-12T06:49:22;19.60;99.90
11838;DHT22;5978;51.020;6.764;2022-07-12T06:51:48;19.80;99.90
11838;DHT22;5978;51.020;6.764;2022-07-12T06:54:14;20.00;99.90
11838;DHT22;5978;51.020;6.764;2022-07-12T06:56:39;20.10;99.90
11838;DHT22;5978;51.020;6.764;2022-07-12T06:59:05;20.20;99.90
11838;DHT22;5978;51.020;6.764;2022-07-12T07:01:30;20.40;99.90
11838;DHT22;5978;51.020;6.764;2022-07-12T07:03:56;20.60;99.90
11838;DHT22;5978;51.020;6.764;2022-07-12T07:06:21;20.80;99.90
11838;DHT22;5978;51.020;6.764;2022-07-12T07:08:47;21.00;99.90
11838;DHT22;5978;51.020;6.764;2022-07-12T07:11:13;21.20;99.90
11838;DHT22;5978;51.020;6.764;2022-07-12T07:13:38;21.40;99.90
11838;DHT22;5978;51.020;6.764;2022-07-12T07:16:05;21.60;99.90
11838;DHT22;5978;51.020;6.764;2022-07-12T07:18:31;21.90;99.90
11838;DHT22;5978;51.020;6.764;2022-07-12T07:20:56;21.90;99.90
11838;DHT22;5978;51.020;6.764;2022-07-12T07:23:22;22.00;99.90
11838;DHT22;5978;51.020;6.764;2022-07-12T07:25:47;22.20;99.90
11838;DHT22;5978;51.020;6.764;2022-07-12T07:28:13;22.30;99.90
11838;DHT22;5978;51.020;6.764;2022-07-12T07:30:39;22.50;99.90
11838;DHT22;5978;51.020;6.764;2022-07-12T07:33:24;22.60;99.90
11838;DHT22;5978;51.020;6.764;2022-07-12T07:35:51;22.80;99.90
11838;DHT22;5978;51.020;6.764;2022-07-12T07:38:18;22.90;99.90
11838;DHT22;5978;51.020;6.764;2022-07-12T07:40:44;22.90;99.90
11838;DHT22;5978;51.020;6.764;2022-07-12T07:43:10;23.00;99.90
11838;DHT22;5978;51.020;6.764;2022-07-12T07:45:36;23.20;99.90
11838;DHT22;5978;51.020;6.764;2022-07-12T07:48:02;23.10;99.90
11838;DHT22;5978;51.020;6.764;2022-07-12T07:50:28;23.30;99.90
11838;DHT22;5978;51.020;6.764;2022-07-12T07:52:55;23.60;99.90
11838;DHT22;5978;51.020;6.764;2022-07-12T07:55:21;23.70;99.90
11838;DHT22;5978;51.020;6.764;2022-07-12T07:57:46;23.70;99.90
11838;DHT22;5978;51.020;6.764;2022-07-12T08:00:13;23.80;99.90
11838;DHT22;5978;51.020;6.764;2022-07-12T08:02:41;23.70;99.90
11838;DHT22;5978;51.020;6.764;2022-07-12T08:05:07;23.80;99.90
11838;DHT22;5978;51.020;6.764;2022-07-12T08:07:32;24.00;99.90
11838;DHT22;5978;51.020;6.764;2022-07-12T08:09:58;23.80;99.90
11838;DHT22;5978;51.020;6.764;2022-07-12T08:12:24;23.90;99.90
11838;DHT22;5978;51.020;6.764;2022-07-12T08:14:49;23.90;99.90
11838;DHT22;5978;51.020;6.764;2022-07-12T08:17:15;24.00;99.90
11838;DHT22;5978;51.020;6.764;2022-07-12T08:19:41;24.20;99.90
11838;DHT22;5978;51.020;6.764;2022-07-12T08:22:06;24.30;99.90
11838;DHT22;5978;51.020;6.764;2022-07-12T08:24:32;24.10;99.90
11838;DHT22;5978;51.020;6.764;2022-07-12T08:26:57;24.10;99.90
11838;DHT22;5978;51.020;6.764;2022-07-12T08:29:23;24.20;99.90
11838;DHT22;5978;51.020;6.764;2022-07-12T08:31:48;24.40;99.90
11838;DHT22;5978;51.020;6.764;2022-07-12T08:34:14;24.40;99.90
11838;DHT22;5978;51.020;6.764;2022-07-12T08:36:39;24.60;99.90
11838;DHT22;5978;51.020;6.764;2022-07-12T08:39:05;24.80;99.90
11838;DHT22;5978;51.020;6.764;2022-07-12T08:41:31;24.90;99.90
11838;DHT22;5978;51.020;6.764;2022-07-12T08:43:56;25.00;99.90
11838;DHT22;5978;51.020;6.764;2022-07-12T08:46:22;25.10;99.90
11838;DHT22;5978;51.020;6.764;2022-07-12T08:48:48;25.10;99.90
11838;DHT22;5978;51.020;6.764;2022-07-12T08:51:20;25.10;99.90
11838;DHT22;5978;51.020;6.764;2022-07-12T08:53:46;25.10;99.90
11838;DHT22;5978;51.020;6.764;2022-07-12T08:56:35;25.40;99.90
11838;DHT22;5978;51.020;6.764;2022-07-12T08:59:12;25.80;99.90
11838;DHT22;5978;51.020;6.764;2022-07-12T09:01:46;26.00;99.90
11838;DHT22;5978;51.020;6.764;2022-07-12T09:04:21;25.80;99.90
11838;DHT22;5978;51.020;6.764;2022-07-12T09:06:47;25.90;99.90
11838;DHT22;5978;51.020;6.764;2022-07-12T09:09:33;25.90;99.90
11838;DHT22;5978;51.020;6.764;2022-07-12T09:11:59;25.90;99.90
11838;DHT22;5978;51.020;6.764;2022-07-12T09:14:25;26.00;99.90
11838;DHT22;5978;51.020;6.764;2022-07-12T09:17:05;26.10;99.90
11838;DHT22;5978;51.020;6.764;2022-07-12T09:19:35;26.00;99.90
11838;DHT22;5978;51.020;6.764;2022-07-12T09:22:02;26.00;99.90
11838;DHT22;5978;51.020;6.764;2022-07-12T09:24:28;26.00;99.90
11838;DHT22;5978;51.020;6.764;2022-07-12T09:27:02;26.30;99.90
11838;DHT22;5978;51.020;6.764;2022-07-12T09:29:28;26.30;99.90
11838;DHT22;5978;51.020;6.764;2022-07-12T09:31:54;26.40;99.90
11838;DHT22;5978;51.020;6.764;2022-07-12T09:34:38;26.40;99.90
11838;DHT22;5978;51.020;6.764;2022-07-12T09:37:24;26.60;99.90
11838;DHT22;5978;51.020;6.764;2022-07-12T09:39:52;26.40;99.90
11838;DHT22;5978;51.020;6.764;2022-07-12T09:42:18;26.70;99.90
11838;DHT22;5978;51.020;6.764;2022-07-12T09:44:45;26.90;99.90
11838;DHT22;5978;51.020;6.764;2022-07-12T09:47:12;27.20;99.90
11838;DHT22;5978;51.020;6.764;2022-07-12T09:49:40;27.40;99.90
11838;DHT22;5978;51.020;6.764;2022-07-12T09:52:15;27.70;99.90
11838;DHT22;5978;51.020;6.764;2022-07-12T09:54:46;27.80;99.90
11838;DHT22;5978;51.020;6.764;2022-07-12T09:57:25;27.90;99.90
11838;DHT22;5978;51.020;6.764;2022-07-12T09:59:51;27.60;99.90
11838;DHT22;5978;51.020;6.764;2022-07-12T10:02:18;27.70;99.90
11838;DHT22;5978;51.020;6.764;2022-07-12T10:04:46;27.70;99.10
11838;DHT22;5978;51.020;6.764;2022-07-12T10:07:11;27.80;96.10
11838;DHT22;5978;51.020;6.764;2022-07-12T10:10:00;28.00;95.70
11838;DHT22;5978;51.020;6.764;2022-07-12T10:12:26;28.10;92.30
11838;DHT22;5978;51.020;6.764;2022-07-12T10:15:00;28.10;90.80
11838;DHT22;5978;51.020;6.764;2022-07-12T10:17:27;28.30;90.80
11838;DHT22;5978;51.020;6.764;2022-07-12T10:20:14;28.00;85.90
11838;DHT22;5978;51.020;6.764;2022-07-12T10:22:40;27.90;84.20
11838;DHT22;5978;51.020;6.764;2022-07-12T10:27:52;27.90;84.30
11838;DHT22;5978;51.020;6.764;2022-07-12T10:30:20;28.00;86.00
11838;DHT22;5978;51.020;6.764;2022-07-12T10:32:48;28.00;83.30
11838;DHT22;5978;51.020;6.764;2022-07-12T10:35:18;28.00;88.50
11838;DHT22;5978;51.020;6.764;2022-07-12T10:40:41;28.50;86.10
11838;DHT22;5978;51.020;6.764;2022-07-12T10:45:40;28.60;82.90
11838;DHT22;5978;51.020;6.764;2022-07-12T10:48:27;28.30;82.90
11838;DHT22;5978;51.020;6.764;2022-07-12T10:50:55;28.40;84.00
11838;DHT22;5978;51.020;6.764;2022-07-12T10:53:35;28.60;81.10
11838;DHT22;5978;51.020;6.764;2022-07-12T10:58:38;29.00;80.60
11838;DHT22;5978;51.020;6.764;2022-07-12T11:01:09;29.20;77.30
11838;DHT22;5978;51.020;6.764;2022-07-12T11:06:04;29.50;75.00
11838;DHT22;5978;51.020;6.764;2022-07-12T11:08:30;29.70;71.50
11838;DHT22;5978;51.020;6.764;2022-07-12T11:10:59;29.90;69.80
11838;DHT22;5978;51.020;6.764;2022-07-12T11:13:25;30.20;67.20
11838;DHT22;5978;51.020;6.764;2022-07-12T11:16:00;30.10;66.60
11838;DHT22;5978;51.020;6.764;2022-07-12T11:18:33;30.50;67.70
11838;DHT22;5978;51.020;6.764;2022-07-12T11:21:00;30.70;66.50
11838;DHT22;5978;51.020;6.764;2022-07-12T11:23:27;30.50;65.70
11838;DHT22;5978;51.020;6.764;2022-07-12T11:25:57;30.40;64.70
11838;DHT22;5978;51.020;6.764;2022-07-12T11:28:23;31.20;65.20
11838;DHT22;5978;51.020;6.764;2022-07-12T11:30:53;32.10;64.90
11838;DHT22;5978;51.020;6.764;2022-07-12T11:33:24;32.90;64.00
11838;DHT22;5978;51.020;6.764;2022-07-12T11:35:51;33.70;61.60
11838;DHT22;5978;51.020;6.764;2022-07-12T11:38:24;33.90;58.20
11838;DHT22;5978;51.020;6.764;2022-07-12T11:40:57;33.60;57.10
11838;DHT22;5978;51.020;6.764;2022-07-12T11:43:24;33.90;56.30
11838;DHT22;5978;51.020;6.764;2022-07-12T11:45:50;34.10;56.40
11838;DHT22;5978;51.020;6.764;2022-07-12T11:48:16;33.80;55.50
11838;DHT22;5978;51.020;6.764;2022-07-12T11:50:43;33.70;56.10
11838;DHT22;5978;51.020;6.764;2022-07-12T11:53:24;34.50;55.20
11838;DHT22;5978;51.020;6.764;2022-07-12T11:55:52;35.10;53.60
11838;DHT22;5978;51.020;6.764;2022-07-12T11:58:19;34.50;53.40
11838;DHT22;5978;51.020;6.764;2022-07-12T12:00:46;35.20;53.40
11838;DHT22;5978;51.020;6.764;2022-07-12T12:03:13;36.10;51.00
11838;DHT22;5978;51.020;6.764;2022-07-12T12:05:39;36.60;51.70
11838;DHT22;5978;51.020;6.764;2022-07-12T12:08:06;37.20;50.30
11838;DHT22;5978;51.020;6.764;2022-07-12T12:10:31;38.30;49.70
11838;DHT22;5978;51.020;6.764;2022-07-12T12:12:59;39.30;49.50
11838;DHT22;5978;51.020;6.764;2022-07-12T12:15:30;39.60;46.20
11838;DHT22;5978;51.020;6.764;2022-07-12T12:18:04;39.50;45.90
11838;DHT22;5978;51.020;6.764;2022-07-12T12:20:39;38.90;46.50
11838;DHT22;5978;51.020;6.764;2022-07-12T12:23:25;39.10;46.10
11838;DHT22;5978;51.020;6.764;2022-07-12T12:25:50;38.50;45.60
11838;DHT22;5978;51.020;6.764;2022-07-12T12:28:16;37.80;45.90
11838;DHT22;5978;51.020;6.764;2022-07-12T12:30:54;36.10;46.40
11838;DHT22;5978;51.020;6.764;2022-07-12T12:33:41;35.00;48.00
11838;DHT22;5978;51.020;6.764;2022-07-12T12:38:42;35.40;49.30
11838;DHT22;5978;51.020;6.764;2022-07-12T12:41:08;36.40;48.30
11838;DHT22;5978;51.020;6.764;2022-07-12T12:43:35;37.00;47.30
11838;DHT22;5978;51.020;6.764;2022-07-12T12:46:01;36.90;46.70
11838;DHT22;5978;51.020;6.764;2022-07-12T12:48:31;37.70;46.80
11838;DHT22;5978;51.020;6.764;2022-07-12T12:51:07;38.00;45.80
11838;DHT22;5978;51.020;6.764;2022-07-12T12:53:33;38.30;45.10
11838;DHT22;5978;51.020;6.764;2022-07-12T12:56:00;38.80;45.40
11838;DHT22;5978;51.020;6.764;2022-07-12T12:58:26;38.80;43.70
11838;DHT22;5978;51.020;6.764;2022-07-12T13:00:54;38.60;44.00
11838;DHT22;5978;51.020;6.764;2022-07-12T13:03:21;38.20;43.70
11838;DHT22;5978;51.020;6.764;2022-07-12T13:05:49;38.60;43.50
11838;DHT22;5978;51.020;6.764;2022-07-12T13:08:15;39.00;43.80
11838;DHT22;5978;51.020;6.764;2022-07-12T13:10:43;39.70;43.20
11838;DHT22;5978;51.020;6.764;2022-07-12T13:13:10;39.80;42.60
11838;DHT22;5978;51.020;6.764;2022-07-12T13:15:36;40.60;43.00
11838;DHT22;5978;51.020;6.764;2022-07-12T13:18:03;41.30;41.90
11838;DHT22;5978;51.020;6.764;2022-07-12T13:20:30;41.90;41.70
11838;DHT22;5978;51.020;6.764;2022-07-12T13:22:57;41.20;40.20
11838;DHT22;5978;51.020;6.764;2022-07-12T13:25:23;41.70;40.70
11838;DHT22;5978;51.020;6.764;2022-07-12T13:27:49;41.60;40.30
11838;DHT22;5978;51.020;6.764;2022-07-12T13:30:16;42.40;41.10
11838;DHT22;5978;51.020;6.764;2022-07-12T13:32:43;42.20;39.10
11838;DHT22;5978;51.020;6.764;2022-07-12T13:35:10;42.70;39.30
11838;DHT22;5978;51.020;6.764;2022-07-12T13:37:37;43.20;40.00
11838;DHT22;5978;51.020;6.764;2022-07-12T13:40:04;44.00;39.00
11838;DHT22;5978;51.020;6.764;2022-07-12T13:42:39;45.00;39.10
11838;DHT22;5978;51.020;6.764;2022-07-12T13:45:07;44.00;38.80
11838;DHT22;5978;51.020;6.764;2022-07-12T13:47:35;44.80;39.30
11838;DHT22;5978;51.020;6.764;2022-07-12T13:50:00;45.20;37.30
11838;DHT22;5978;51.020;6.764;2022-07-12T13:52:26;45.00;37.70
11838;DHT22;5978;51.020;6.764;2022-07-12T13:54:51;44.60;36.90
11838;DHT22;5978;51.020;6.764;2022-07-12T13:57:17;45.10;37.50
11838;DHT22;5978;51.020;6.764;2022-07-12T13:59:43;45.00;37.00
11838;DHT22;5978;51.020;6.764;2022-07-12T14:02:09;45.30;37.00
11838;DHT22;5978;51.020;6.764;2022-07-12T14:04:34;45.50;36.40
11838;DHT22;5978;51.020;6.764;2022-07-12T14:07:00;45.50;36.10
11838;DHT22;5978;51.020;6.764;2022-07-12T14:09:26;44.90;35.80
11838;DHT22;5978;51.020;6.764;2022-07-12T14:11:52;44.10;36.10
11838;DHT22;5978;51.020;6.764;2022-07-12T14:14:19;43.50;35.70
11838;DHT22;5978;51.020;6.764;2022-07-12T14:17:05;42.30;36.60
11838;DHT22;5978;51.020;6.764;2022-07-12T14:19:31;41.90;36.90
11838;DHT22;5978;51.020;6.764;2022-07-12T14:21:57;42.10;38.00
11838;DHT22;5978;51.020;6.764;2022-07-12T14:24:23;42.70;38.10
11838;DHT22;5978;51.020;6.764;2022-07-12T14:26:48;43.50;38.10
11838;DHT22;5978;51.020;6.764;2022-07-12T14:29:14;44.50;36.90
11838;DHT22;5978;51.020;6.764;2022-07-12T14:31:39;44.60;36.20
11838;DHT22;5978;51.020;6.764;2022-07-12T14:34:05;44.00;35.80
11838;DHT22;5978;51.020;6.764;2022-07-12T14:36:30;43.60;35.90
11838;DHT22;5978;51.020;6.764;2022-07-12T14:38:56;43.20;37.50
11838;DHT22;5978;51.020;6.764;2022-07-12T14:41:22;42.40;37.20
11838;DHT22;5978;51.020;6.764;2022-07-12T14:43:48;41.80;37.40
11838;DHT22;5978;51.020;6.764;2022-07-12T14:46:15;42.30;37.80
11838;DHT22;5978;51.020;6.764;2022-07-12T14:48:42;42.30;37.60
11838;DHT22;5978;51.020;6.764;2022-07-12T14:51:08;42.70;37.00
11838;DHT22;5978;51.020;6.764;2022-07-12T14:53:34;42.70;36.70
11838;DHT22;5978;51.020;6.764;2022-07-12T14:55:59;42.20;37.50
11838;DHT22;5978;51.020;6.764;2022-07-12T14:58:25;42.00;38.30
11838;DHT22;5978;51.020;6.764;2022-07-12T15:00:50;41.80;37.90
11838;DHT22;5978;51.020;6.764;2022-07-12T15:03:16;41.90;38.00
11838;DHT22;5978;51.020;6.764;2022-07-12T15:05:43;41.50;37.80
11838;DHT22;5978;51.020;6.764;2022-07-12T15:08:09;41.50;37.70
11838;DHT22;5978;51.020;6.764;2022-07-12T15:10:36;40.60;39.10
11838;DHT22;5978;51.020;6.764;2022-07-12T15:13:02;40.60;39.70
11838;DHT22;5978;51.020;6.764;2022-07-12T15:15:28;40.10;39.70
11838;DHT22;5978;51.020;6.764;2022-07-12T15:17:53;39.20;39.40
11838;DHT22;5978;51.020;6.764;2022-07-12T15:20:19;38.10;39.80
11838;DHT22;5978;51.020;6.764;2022-07-12T15:22:45;37.20;40.50
11838;DHT22;5978;51.020;6.764;2022-07-12T15:25:10;37.60;41.60
11838;DHT22;5978;51.020;6.764;2022-07-12T15:27:36;38.50;42.60
11838;DHT22;5978;51.020;6.764;2022-07-12T15:30:02;39.50;42.40
11838;DHT22;5978;51.020;6.764;2022-07-12T15:32:29;40.90;41.20
11838;DHT22;5978;51.020;6.764;2022-07-12T15:34:54;42.00;40.20
11838;DHT22;5978;51.020;6.764;2022-07-12T15:37:20;43.00;38.70
11838;DHT22;5978;51.020;6.764;2022-07-12T15:39:46;43.40;38.40
11838;DHT22;5978;51.020;6.764;2022-07-12T15:42:11;43.10;38.00
11838;DHT22;5978;51.020;6.764;2022-07-12T15:44:37;42.50;38.40
11838;DHT22;5978;51.020;6.764;2022-07-12T15:47:03;41.80;38.30
11838;DHT22;5978;51.020;6.764;2022-07-12T15:49:29;40.70;38.80
11838;DHT22;5978;51.020;6.764;2022-07-12T15:51:55;39.70;40.20
11838;DHT22;5978;51.020;6.764;2022-07-12T15:54:39;38.80;41.10
11838;DHT22;5978;51.020;6.764;2022-07-12T15:57:04;37.90;41.50
11838;DHT22;5978;51.020;6.764;2022-07-12T15:59:31;37.50;42.70
11838;DHT22;5978;51.020;6.764;2022-07-12T16:01:56;36.70;42.20